sensor_id;sensor_type;location;lat;lon;timestamp;pressure;altitude;pressure_sealevel;temperature;humidity
62057;BME280;48016;50.284;18.860;2024-03-23T00:55:51;97497.66;;;9.83;70.25
62057;BME280;48016;50.284;18.860;2024-03-23T00:58:17;97495.72;;;9.76;69.98
62057;BME280;48016;50.284;18.860;2024-03-23T01:00:44;97497.33;;;9.70;69.79
62057;BME280;48016;50.284;18.860;2024-03-23T01:03:10;97497.05;;;9.65;69.71
62057;BME280;48016;50.284;18.860;2024-03-23T01:05:37;97491.48;;;9.59;69.75
62057;BME280;48016;50.284;18.860;2024-03-23T01:08:03;97492.72;;;9.56;69.78
62057;BME280;48016;50.284;18.860;2024-03-23T01:10:30;97489.96;;;9.54;69.93
62057;BME280;48016;50.284;18.860;2024-03-23T01:12:56;97488.45;;;9.50;70.20
62057;BME280;48016;50.284;18.860;2024-03-23T01:15:23;97484.94;;;9.49;70.41
62057;BME280;48016;50.284;18.860;2024-03-23T01:17:49;97481.17;;;9.48;70.39
62057;BME280;48016;50.284;18.860;2024-03-23T01:20:16;97479.71;;;9.47;70.77
62057;BME280;48016;50.284;18.860;2024-03-23T01:22:42;97474.10;;;9.45;71.23
62057;BME280;48016;50.284;18.860;2024-03-23T01:25:09;97467.73;;;9.42;71.21
62057;BME280;48016;50.284;18.860;2024-03-23T01:27:35;97461.36;;;9.42;71.24
62057;BME280;48016;50.284;18.860;2024-03-23T01:30:02;97461.89;;;9.42;71.01
62057;BME280;48016;50.284;18.860;2024-03-23T01:32:28;97456.88;;;9.43;71.14
62057;BME280;48016;50.284;18.860;2024-03-23T01:34:55;97452.89;;;9.43;71.23
62057;BME280;48016;50.284;18.860;2024-03-23T01:37:21;97449.33;;;9.45;71.34
62057;BME280;48016;50.284;18.860;2024-03-23T01:39:48;97448.63;;;9.46;71.45
62057;BME280;48016;50.284;18.860;2024-03-23T01:42:14;97443.39;;;9.46;71.46
62057;BME280;48016;50.284;18.860;2024-03-23T01:44:40;97437.67;;;9.47;71.68
62057;BME280;48016;50.284;18.860;2024-03-23T01:47:07;97438.16;;;9.48;71.75
62057;BME280;48016;50.284;18.860;2024-03-23T01:49:34;97432.92;;;9.48;71.83
62057;BME280;48016;50.284;18.860;2024-03-23T01:52:01;97427.85;;;9.48;71.68
62057;BME280;48016;50.284;18.860;2024-03-23T01:54:28;97428.65;;;9.48;71.57
62057;BME280;48016;50.284;18.860;2024-03-23T01:56:55;97426.82;;;9.47;71.71
62057;BME280;48016;50.284;18.860;2024-03-23T01:59:22;97430.23;;;9.46;71.73
62057;BME280;48016;50.284;18.860;2024-03-23T02:01:49;97429.52;;;9.45;72.06
62057;BME280;48016;50.284;18.860;2024-03-23T02:04:16;97427.15;;;9.43;72.02
62057;BME280;48016;50.284;18.860;2024-03-23T02:06:42;97430.82;;;9.42;72.05
62057;BME280;48016;50.284;18.860;2024-03-23T02:09:09;97431.41;;;9.42;72.05
62057;BME280;48016;50.284;18.860;2024-03-23T02:11:35;97429.95;;;9.42;72.17
62057;BME280;48016;50.284;18.860;2024-03-23T02:14:01;97427.69;;;9.41;72.62
62057;BME280;48016;50.284;18.860;2024-03-23T02:16:28;97428.28;;;9.42;72.62
62057;BME280;48016;50.284;18.860;2024-03-23T02:18:54;97424.40;;;9.42;72.84
62057;BME280;48016;50.284;18.860;2024-03-23T02:21:21;97420.95;;;9.40;72.97
62057;BME280;48016;50.284;18.860;2024-03-23T02:23:47;97418.67;;;9.40;72.98
62057;BME280;48016;50.284;18.860;2024-03-23T02:26:14;97419.22;;;9.40;73.31
62057;BME280;48016;50.284;18.860;2024-03-23T02:28:41;97418.51;;;9.39;73.54
62057;BME280;48016;50.284;18.860;2024-03-23T02:31:07;97415.10;;;9.38;73.64
62057;BME280;48016;50.284;18.860;2024-03-23T02:33:34;97404.95;;;9.37;73.67
62057;BME280;48016;50.284;18.860;2024-03-23T02:36:04;97401.73;;;9.37;73.97
62057;BME280;48016;50.284;18.860;2024-03-23T02:38:30;97406.42;;;9.37;74.03
62057;BME280;48016;50.284;18.860;2024-03-23T02:41:04;97403.55;;;9.37;74.24
62057;BME280;48016;50.284;18.860;2024-03-23T02:43:31;97399.35;;;9.36;74.55
62057;BME280;48016;50.284;18.860;2024-03-23T02:45:57;97394.59;;;9.31;74.43
62057;BME280;48016;50.284;18.860;2024-03-23T02:48:24;97396.48;;;9.28;74.30
62057;BME280;48016;50.284;18.860;2024-03-23T02:50:50;97393.36;;;9.29;74.29
62057;BME280;48016;50.284;18.860;2024-03-23T02:53:17;97387.70;;;9.29;74.49
62057;BME280;48016;50.284;18.860;2024-03-23T02:55:43;97383.87;;;9.29;74.57
62057;BME280;48016;50.284;18.860;2024-03-23T02:58:10;97371.84;;;9.26;74.57
62057;BME280;48016;50.284;18.860;2024-03-23T03:00:36;97368.02;;;9.26;74.46
62057;BME280;48016;50.284;18.860;2024-03-23T03:03:03;97369.09;;;9.24;74.46
62057;BME280;48016;50.284;18.860;2024-03-23T03:05:30;97371.67;;;9.24;74.59
62057;BME280;48016;50.284;18.860;2024-03-23T03:07:56;97374.48;;;9.24;74.75
62057;BME280;48016;50.284;18.860;2024-03-23T03:10:23;97377.02;;;9.22;75.08
62057;BME280;48016;50.284;18.860;2024-03-23T03:12:49;97372.96;;;9.19;75.40
62057;BME280;48016;50.284;18.860;2024-03-23T03:15:16;97368.65;;;9.16;75.55
62057;BME280;48016;50.284;18.860;2024-03-23T03:17:42;97359.25;;;9.11;75.58
62057;BME280;48016;50.284;18.860;2024-03-23T03:20:09;97354.95;;;9.07;75.69
62057;BME280;48016;50.284;18.860;2024-03-23T03:22:39;97349.87;;;9.04;75.78
62057;BME280;48016;50.284;18.860;2024-03-23T03:25:06;97347.44;;;9.03;75.62
62057;BME280;48016;50.284;18.860;2024-03-23T03:27:33;97345.88;;;9.03;75.78
62057;BME280;48016;50.284;18.860;2024-03-23T03:30:01;97345.33;;;9.00;76.13
62057;BME280;48016;50.284;18.860;2024-03-23T03:32:29;97337.83;;;8.98;76.19
62057;BME280;48016;50.284;18.860;2024-03-23T03:34:56;97330.45;;;8.96;75.92
62057;BME280;48016;50.284;18.860;2024-03-23T03:37:22;97325.44;;;8.96;76.29
62057;BME280;48016;50.284;18.860;2024-03-23T03:39:49;97323.48;;;8.94;76.47
62057;BME280;48016;50.284;18.860;2024-03-23T03:42:15;97332.71;;;8.94;76.30
62057;BME280;48016;50.284;18.860;2024-03-23T03:44:42;97337.56;;;8.93;76.55
62057;BME280;48016;50.284;18.860;2024-03-23T03:47:08;97335.08;;;8.92;76.90
62057;BME280;48016;50.284;18.860;2024-03-23T03:49:35;97339.44;;;8.91;76.86
62057;BME280;48016;50.284;18.860;2024-03-23T03:52:01;97342.20;;;8.91;76.96
62057;BME280;48016;50.284;18.860;2024-03-23T03:54:28;97339.23;;;8.92;76.87
62057;BME280;48016;50.284;18.860;2024-03-23T03:56:54;97335.83;;;8.90;76.68
62057;BME280;48016;50.284;18.860;2024-03-23T03:59:21;97328.16;;;8.88;76.31
62057;BME280;48016;50.284;18.860;2024-03-23T04:01:47;97317.27;;;8.86;76.31
62057;BME280;48016;50.284;18.860;2024-03-23T04:04:14;97323.31;;;8.84;76.28
62057;BME280;48016;50.284;18.860;2024-03-23T04:06:43;97318.73;;;8.85;76.40
62057;BME280;48016;50.284;18.860;2024-03-23T04:09:10;97307.52;;;8.86;76.44
62057;BME280;48016;50.284;18.860;2024-03-23T04:11:37;97303.70;;;8.84;76.76
62057;BME280;48016;50.284;18.860;2024-03-23T04:14:03;97303.58;;;8.83;76.64
62057;BME280;48016;50.284;18.860;2024-03-23T04:16:34;97302.98;;;8.84;76.58
62057;BME280;48016;50.284;18.860;2024-03-23T04:19:01;97298.41;;;8.87;76.98
62057;BME280;48016;50.284;18.860;2024-03-23T04:21:28;97294.05;;;8.87;77.29
62057;BME280;48016;50.284;18.860;2024-03-23T04:23:54;97292.23;;;8.87;77.29
62057;BME280;48016;50.284;18.860;2024-03-23T04:26:20;97292.90;;;8.86;77.58
62057;BME280;48016;50.284;18.860;2024-03-23T04:28:47;97282.55;;;8.83;77.65
62057;BME280;48016;50.284;18.860;2024-03-23T04:31:13;97274.86;;;8.80;77.66
62057;BME280;48016;50.284;18.860;2024-03-23T04:33:40;97274.33;;;8.80;77.54
62057;BME280;48016;50.284;18.860;2024-03-23T04:36:06;97266.55;;;8.78;77.43
62057;BME280;48016;50.284;18.860;2024-03-23T04:38:33;97264.61;;;8.77;77.48
62057;BME280;48016;50.284;18.860;2024-03-23T04:41:00;97261.70;;;8.78;77.82
62057;BME280;48016;50.284;18.860;2024-03-23T04:43:28;97262.89;;;8.80;77.97
62057;BME280;48016;50.284;18.860;2024-03-23T04:45:54;97264.30;;;8.81;78.07
62057;BME280;48016;50.284;18.860;2024-03-23T04:48:21;97268.27;;;8.81;78.31
62057;BME280;48016;50.284;18.860;2024-03-23T04:50:49;97270.42;;;8.81;78.37
62057;BME280;48016;50.284;18.860;2024-03-23T04:53:16;97273.83;;;8.81;78.54
62057;BME280;48016;50.284;18.860;2024-03-23T04:55:43;97270.43;;;8.83;78.37
62057;BME280;48016;50.284;18.860;2024-03-23T04:58:09;97272.48;;;8.85;78.00
62057;BME280;48016;50.284;18.860;2024-03-23T05:00:36;97266.23;;;8.86;78.22
62057;BME280;48016;50.284;18.860;2024-03-23T05:03:02;97264.14;;;8.88;78.13
62057;BME280;48016;50.284;18.860;2024-03-23T05:05:31;97259.60;;;8.90;78.00
62057;BME280;48016;50.284;18.860;2024-03-23T05:07:58;97257.98;;;8.93;78.01
62057;BME280;48016;50.284;18.860;2024-03-23T05:10:24;97256.04;;;8.96;77.97
62057;BME280;48016;50.284;18.860;2024-03-23T05:12:50;97251.41;;;9.01;77.85
62057;BME280;48016;50.284;18.860;2024-03-23T05:15:17;97252.10;;;9.04;77.85
62057;BME280;48016;50.284;18.860;2024-03-23T05:17:44;97255.27;;;9.07;77.65
62057;BME280;48016;50.284;18.860;2024-03-23T05:20:10;97253.07;;;9.10;77.70
62057;BME280;48016;50.284;18.860;2024-03-23T05:22:39;97251.56;;;9.12;77.72
62057;BME280;48016;50.284;18.860;2024-03-23T05:25:06;97243.63;;;9.15;77.60
62057;BME280;48016;50.284;18.860;2024-03-23T05:27:34;97239.05;;;9.18;77.55
62057;BME280;48016;50.284;18.860;2024-03-23T05:30:00;97240.17;;;9.20;77.38
62057;BME280;48016;50.284;18.860;2024-03-23T05:32:27;97238.72;;;9.21;77.44
62057;BME280;48016;50.284;18.860;2024-03-23T05:34:54;97236.29;;;9.20;77.33
62057;BME280;48016;50.284;18.860;2024-03-23T05:37:23;97234.30;;;9.20;77.21
62057;BME280;48016;50.284;18.860;2024-03-23T05:39:50;97237.74;;;9.20;77.01
62057;BME280;48016;50.284;18.860;2024-03-23T05:42:17;97236.94;;;9.18;77.00
62057;BME280;48016;50.284;18.860;2024-03-23T05:44:47;97234.35;;;9.16;77.00
62057;BME280;48016;50.284;18.860;2024-03-23T05:47:13;97231.52;;;9.14;77.02
62057;BME280;48016;50.284;18.860;2024-03-23T05:49:41;97226.38;;;9.11;76.83
62057;BME280;48016;50.284;18.860;2024-03-23T05:52:10;97225.67;;;9.10;76.81
62057;BME280;48016;50.284;18.860;2024-03-23T05:54:36;97215.61;;;9.10;76.86
62057;BME280;48016;50.284;18.860;2024-03-23T05:57:03;97202.60;;;9.10;76.81
62057;BME280;48016;50.284;18.860;2024-03-23T05:59:30;97202.23;;;9.08;76.72
62057;BME280;48016;50.284;18.860;2024-03-23T06:01:57;97199.10;;;9.08;76.78
62057;BME280;48016;50.284;18.860;2024-03-23T06:04:24;97197.20;;;9.11;76.68
62057;BME280;48016;50.284;18.860;2024-03-23T06:06:51;97192.24;;;9.12;76.79
62057;BME280;48016;50.284;18.860;2024-03-23T06:09:18;97188.46;;;9.16;76.81
62057;BME280;48016;50.284;18.860;2024-03-23T06:11:45;97188.45;;;9.20;76.75
62057;BME280;48016;50.284;18.860;2024-03-23T06:14:12;97188.30;;;9.23;76.78
62057;BME280;48016;50.284;18.860;2024-03-23T06:16:38;97190.33;;;9.27;76.71
62057;BME280;48016;50.284;18.860;2024-03-23T06:19:05;97191.56;;;9.30;76.73
62057;BME280;48016;50.284;18.860;2024-03-23T06:21:33;97184.98;;;9.32;76.72
62057;BME280;48016;50.284;18.860;2024-03-23T06:23:59;97182.38;;;9.35;76.79
62057;BME280;48016;50.284;18.860;2024-03-23T06:26:26;97184.45;;;9.42;76.93
62057;BME280;48016;50.284;18.860;2024-03-23T06:28:52;97187.40;;;9.52;76.91
62057;BME280;48016;50.284;18.860;2024-03-23T06:31:19;97185.37;;;9.61;76.73
62057;BME280;48016;50.284;18.860;2024-03-23T06:33:45;97182.31;;;9.68;76.54
62057;BME280;48016;50.284;18.860;2024-03-23T06:36:12;97179.70;;;9.73;76.36
62057;BME280;48016;50.284;18.860;2024-03-23T06:38:38;97181.99;;;9.79;76.30
62057;BME280;48016;50.284;18.860;2024-03-23T06:41:05;97182.46;;;9.86;76.23
62057;BME280;48016;50.284;18.860;2024-03-23T06:43:32;97179.03;;;9.92;76.02
62057;BME280;48016;50.284;18.860;2024-03-23T06:45:58;97179.53;;;9.98;75.94
62057;BME280;48016;50.284;18.860;2024-03-23T06:48:25;97175.97;;;10.08;75.90
62057;BME280;48016;50.284;18.860;2024-03-23T06:50:56;97170.83;;;10.18;75.66
62057;BME280;48016;50.284;18.860;2024-03-23T06:53:23;97172.73;;;10.26;75.37
62057;BME280;48016;50.284;18.860;2024-03-23T06:55:53;97170.30;;;10.38;75.08
62057;BME280;48016;50.284;18.860;2024-03-23T06:58:21;97167.12;;;10.51;74.79
62057;BME280;48016;50.284;18.860;2024-03-23T07:00:48;97165.14;;;10.63;74.46
62057;BME280;48016;50.284;18.860;2024-03-23T07:03:16;97166.75;;;10.77;74.11
62057;BME280;48016;50.284;18.860;2024-03-23T07:05:43;97163.50;;;10.95;73.76
62057;BME280;48016;50.284;18.860;2024-03-23T07:08:09;97163.02;;;11.11;73.37
62057;BME280;48016;50.284;18.860;2024-03-23T07:10:39;97159.73;;;11.27;73.24
62057;BME280;48016;50.284;18.860;2024-03-23T07:13:05;97156.56;;;11.40;72.99
62057;BME280;48016;50.284;18.860;2024-03-23T07:15:32;97159.21;;;11.50;72.83
62057;BME280;48016;50.284;18.860;2024-03-23T07:17:59;97149.14;;;11.59;72.79
62057;BME280;48016;50.284;18.860;2024-03-23T07:20:25;97148.95;;;11.70;72.77
62057;BME280;48016;50.284;18.860;2024-03-23T07:22:52;97149.11;;;11.78;72.38
62057;BME280;48016;50.284;18.860;2024-03-23T07:25:19;97144.95;;;11.83;72.09
62057;BME280;48016;50.284;18.860;2024-03-23T07:27:47;97143.09;;;11.86;71.65
62057;BME280;48016;50.284;18.860;2024-03-23T07:30:13;97144.23;;;11.90;71.44
62057;BME280;48016;50.284;18.860;2024-03-23T07:32:39;97143.50;;;11.91;71.23
62057;BME280;48016;50.284;18.860;2024-03-23T07:35:06;97145.54;;;11.93;70.85
62057;BME280;48016;50.284;18.860;2024-03-23T07:37:33;97148.59;;;12.00;70.35
62057;BME280;48016;50.284;18.860;2024-03-23T07:39:59;97143.77;;;12.11;70.30
62057;BME280;48016;50.284;18.860;2024-03-23T07:42:25;97142.27;;;12.20;70.35
62057;BME280;48016;50.284;18.860;2024-03-23T07:44:52;97137.92;;;12.32;70.02
62057;BME280;48016;50.284;18.860;2024-03-23T07:47:21;97132.73;;;12.47;69.90
62057;BME280;48016;50.284;18.860;2024-03-23T07:49:47;97121.19;;;12.73;69.59
62057;BME280;48016;50.284;18.860;2024-03-23T07:52:14;97112.18;;;13.22;68.82
62057;BME280;48016;50.284;18.860;2024-03-23T07:54:41;97108.23;;;13.75;68.21
62057;BME280;48016;50.284;18.860;2024-03-23T07:57:07;97109.65;;;14.28;67.53
62057;BME280;48016;50.284;18.860;2024-03-23T07:59:34;97112.09;;;14.79;66.60
62057;BME280;48016;50.284;18.860;2024-03-23T08:02:00;97109.24;;;15.22;65.96
62057;BME280;48016;50.284;18.860;2024-03-23T08:04:27;97101.14;;;15.64;65.21
62057;BME280;48016;50.284;18.860;2024-03-23T08:06:54;97094.70;;;16.02;63.57
62057;BME280;48016;50.284;18.860;2024-03-23T08:09:20;97094.45;;;16.38;62.77
62057;BME280;48016;50.284;18.860;2024-03-23T08:11:47;97091.41;;;16.73;61.61
62057;BME280;48016;50.284;18.860;2024-03-23T08:14:13;97085.15;;;17.10;60.48
62057;BME280;48016;50.284;18.860;2024-03-23T08:16:40;97078.85;;;17.41;60.38
62057;BME280;48016;50.284;18.860;2024-03-23T08:19:07;97070.77;;;17.65;59.60
62057;BME280;48016;50.284;18.860;2024-03-23T08:21:34;97063.92;;;17.75;58.17
62057;BME280;48016;50.284;18.860;2024-03-23T08:24:01;97063.30;;;17.70;58.36
62057;BME280;48016;50.284;18.860;2024-03-23T08:26:27;97055.15;;;17.67;57.35
62057;BME280;48016;50.284;18.860;2024-03-23T08:28:54;97053.20;;;17.77;57.07
62057;BME280;48016;50.284;18.860;2024-03-23T08:31:20;97045.92;;;17.90;56.45
62057;BME280;48016;50.284;18.860;2024-03-23T08:33:46;97038.10;;;18.03;55.83
62057;BME280;48016;50.284;18.860;2024-03-23T08:36:13;97034.44;;;18.18;55.34
62057;BME280;48016;50.284;18.860;2024-03-23T08:38:40;97026.07;;;18.40;54.91
62057;BME280;48016;50.284;18.860;2024-03-23T08:41:11;97021.09;;;18.54;54.17
62057;BME280;48016;50.284;18.860;2024-03-23T08:43:39;97014.76;;;18.68;53.66
62057;BME280;48016;50.284;18.860;2024-03-23T08:48:36;97003.38;;;18.84;52.04
62057;BME280;48016;50.284;18.860;2024-03-23T08:51:03;97000.88;;;18.93;52.28
62057;BME280;48016;50.284;18.860;2024-03-23T08:53:30;96997.08;;;19.11;52.28
62057;BME280;48016;50.284;18.860;2024-03-23T08:55:58;96990.29;;;19.39;51.58
62057;BME280;48016;50.284;18.860;2024-03-23T08:58:26;96980.16;;;19.50;50.50
62057;BME280;48016;50.284;18.860;2024-03-23T09:00:54;96983.42;;;19.53;50.13
62057;BME280;48016;50.284;18.860;2024-03-23T09:03:24;96981.48;;;19.57;50.10
62057;BME280;48016;50.284;18.860;2024-03-23T09:05:51;96974.30;;;19.49;49.43
62057;BME280;48016;50.284;18.860;2024-03-23T09:08:18;96976.45;;;19.35;49.09
62057;BME280;48016;50.284;18.860;2024-03-23T09:10:45;96974.79;;;19.20;49.05
62057;BME280;48016;50.284;18.860;2024-03-23T09:13:11;96969.27;;;19.11;49.10
62057;BME280;48016;50.284;18.860;2024-03-23T09:15:46;96960.36;;;19.07;48.96
62057;BME280;48016;50.284;18.860;2024-03-23T09:18:12;96957.04;;;19.05;49.10
62057;BME280;48016;50.284;18.860;2024-03-23T09:20:39;96947.86;;;19.02;49.20
62057;BME280;48016;50.284;18.860;2024-03-23T09:23:05;96938.77;;;19.07;49.02
62057;BME280;48016;50.284;18.860;2024-03-23T09:25:36;96934.77;;;19.06;48.53
62057;BME280;48016;50.284;18.860;2024-03-23T09:28:02;96925.39;;;18.94;48.19
62057;BME280;48016;50.284;18.860;2024-03-23T09:30:29;96919.14;;;18.84;48.42
62057;BME280;48016;50.284;18.860;2024-03-23T09:32:55;96910.27;;;18.81;48.48
62057;BME280;48016;50.284;18.860;2024-03-23T09:35:22;96911.75;;;18.79;48.71
62057;BME280;48016;50.284;18.860;2024-03-23T09:37:48;96907.47;;;18.79;48.67
62057;BME280;48016;50.284;18.860;2024-03-23T09:40:15;96903.27;;;18.73;48.34
62057;BME280;48016;50.284;18.860;2024-03-23T09:42:42;96897.02;;;18.69;47.91
62057;BME280;48016;50.284;18.860;2024-03-23T09:45:17;96889.52;;;18.62;47.69
62057;BME280;48016;50.284;18.860;2024-03-23T09:47:44;96888.77;;;18.58;47.86
62057;BME280;48016;50.284;18.860;2024-03-23T09:50:13;96879.83;;;18.55;47.69
62057;BME280;48016;50.284;18.860;2024-03-23T09:52:39;96875.16;;;18.50;47.69
62057;BME280;48016;50.284;18.860;2024-03-23T09:55:08;96869.67;;;18.43;47.96
62057;BME280;48016;50.284;18.860;2024-03-23T09:57:35;96864.55;;;18.44;47.94
62057;BME280;48016;50.284;18.860;2024-03-23T10:00:03;96857.11;;;18.46;47.89
62057;BME280;48016;50.284;18.860;2024-03-23T10:02:30;96848.81;;;18.48;47.30
62057;BME280;48016;50.284;18.860;2024-03-23T10:04:56;96840.91;;;18.45;46.32
62057;BME280;48016;50.284;18.860;2024-03-23T10:07:24;96840.62;;;18.37;46.67
62057;BME280;48016;50.284;18.860;2024-03-23T10:09:50;96835.67;;;18.31;46.70
62057;BME280;48016;50.284;18.860;2024-03-23T10:12:18;96830.83;;;18.24;46.62
62057;BME280;48016;50.284;18.860;2024-03-23T10:14:45;96826.17;;;18.25;46.55
62057;BME280;48016;50.284;18.860;2024-03-23T10:17:14;96829.90;;;18.24;46.54
62057;BME280;48016;50.284;18.860;2024-03-23T10:19:41;96823.07;;;18.25;46.81
62057;BME280;48016;50.284;18.860;2024-03-23T10:22:17;96809.75;;;18.22;46.51
62057;BME280;48016;50.284;18.860;2024-03-23T10:24:44;96810.25;;;18.21;46.70
62057;BME280;48016;50.284;18.860;2024-03-23T10:27:21;96809.39;;;18.21;46.60
62057;BME280;48016;50.284;18.860;2024-03-23T10:29:48;96808.24;;;18.14;46.54
62057;BME280;48016;50.284;18.860;2024-03-23T10:32:17;96806.34;;;18.06;46.24
62057;BME280;48016;50.284;18.860;2024-03-23T10:34:45;96807.41;;;18.01;46.35
62057;BME280;48016;50.284;18.860;2024-03-23T10:37:11;96802.77;;;18.00;46.56
62057;BME280;48016;50.284;18.860;2024-03-23T10:39:39;96795.89;;;17.98;46.74
62057;BME280;48016;50.284;18.860;2024-03-23T10:42:08;96792.40;;;17.96;46.78
62057;BME280;48016;50.284;18.860;2024-03-23T10:44:35;96780.36;;;18.08;46.86
62057;BME280;48016;50.284;18.860;2024-03-23T10:47:02;96760.61;;;18.18;45.97
62057;BME280;48016;50.284;18.860;2024-03-23T10:49:30;96757.09;;;18.20;45.70
62057;BME280;48016;50.284;18.860;2024-03-23T10:51:57;96751.04;;;18.24;45.30
62057;BME280;48016;50.284;18.860;2024-03-23T10:54:25;96744.23;;;18.24;44.89
62057;BME280;48016;50.284;18.860;2024-03-23T10:57:00;96731.36;;;18.25;44.75
62057;BME280;48016;50.284;18.860;2024-03-23T10:59:29;96717.52;;;18.27;44.08
62057;BME280;48016;50.284;18.860;2024-03-23T11:01:59;96716.27;;;18.27;44.07
62057;BME280;48016;50.284;18.860;2024-03-23T11:04:36;96716.80;;;18.29;44.17
62057;BME280;48016;50.284;18.860;2024-03-23T11:07:28;96707.59;;;18.35;44.23
62057;BME280;48016;50.284;18.860;2024-03-23T11:09:54;96687.91;;;18.40;43.32
62057;BME280;48016;50.284;18.860;2024-03-23T11:17:24;96667.94;;;18.49;43.34
62057;BME280;48016;50.284;18.860;2024-03-23T11:19:59;96652.55;;;18.59;43.11
62057;BME280;48016;50.284;18.860;2024-03-23T11:25:34;96651.23;;;18.65;42.34
62057;BME280;48016;50.284;18.860;2024-03-23T11:28:11;96640.17;;;18.66;42.42
62057;BME280;48016;50.284;18.860;2024-03-23T11:30:38;96629.98;;;18.67;42.31
62057;BME280;48016;50.284;18.860;2024-03-23T11:33:05;96624.64;;;18.67;41.75
62057;BME280;48016;50.284;18.860;2024-03-23T11:35:40;96613.86;;;18.64;41.98
62057;BME280;48016;50.284;18.860;2024-03-23T11:38:17;96600.79;;;18.63;41.43
62057;BME280;48016;50.284;18.860;2024-03-23T11:40:48;96591.42;;;18.62;41.33
62057;BME280;48016;50.284;18.860;2024-03-23T11:43:19;96588.02;;;18.63;41.27
62057;BME280;48016;50.284;18.860;2024-03-23T11:45:48;96581.73;;;18.65;41.19
62057;BME280;48016;50.284;18.860;2024-03-23T11:48:17;96581.67;;;18.68;41.29
62057;BME280;48016;50.284;18.860;2024-03-23T11:50:45;96574.42;;;18.74;41.30
62057;BME280;48016;50.284;18.860;2024-03-23T11:58:20;96558.06;;;18.85;40.65
62057;BME280;48016;50.284;18.860;2024-03-23T12:00:59;96557.36;;;18.85;40.28
62057;BME280;48016;50.284;18.860;2024-03-23T12:03:26;96549.95;;;18.86;40.98
62057;BME280;48016;50.284;18.860;2024-03-23T12:05:59;96527.88;;;18.91;41.09
62057;BME280;48016;50.284;18.860;2024-03-23T12:08:30;96525.41;;;18.93;41.10
62057;BME280;48016;50.284;18.860;2024-03-23T12:11:11;96518.42;;;18.95;41.01
62057;BME280;48016;50.284;18.860;2024-03-23T12:13:39;96507.26;;;18.99;40.67
62057;BME280;48016;50.284;18.860;2024-03-23T12:16:13;96505.61;;;18.99;40.44
62057;BME280;48016;50.284;18.860;2024-03-23T12:18:41;96504.10;;;18.98;40.22
62057;BME280;48016;50.284;18.860;2024-03-23T12:21:08;96502.21;;;18.98;39.73
62057;BME280;48016;50.284;18.860;2024-03-23T12:23:35;96495.31;;;18.97;39.51
62057;BME280;48016;50.284;18.860;2024-03-23T12:26:02;96486.56;;;18.98;39.29
62057;BME280;48016;50.284;18.860;2024-03-23T12:28:28;96481.38;;;18.97;39.33
62057;BME280;48016;50.284;18.860;2024-03-23T12:30:54;96467.48;;;18.98;38.72
62057;BME280;48016;50.284;18.860;2024-03-23T12:33:21;96471.52;;;18.96;38.77
62057;BME280;48016;50.284;18.860;2024-03-23T12:35:48;96469.48;;;18.96;38.80
62057;BME280;48016;50.284;18.860;2024-03-23T12:38:16;96461.17;;;18.96;38.63
62057;BME280;48016;50.284;18.860;2024-03-23T12:40:46;96452.48;;;18.95;38.61
62057;BME280;48016;50.284;18.860;2024-03-23T12:43:14;96448.80;;;18.95;38.66
62057;BME280;48016;50.284;18.860;2024-03-23T12:45:41;96445.08;;;18.97;38.87
62057;BME280;48016;50.284;18.860;2024-03-23T12:48:08;96440.93;;;19.00;38.84
62057;BME280;48016;50.284;18.860;2024-03-23T12:50:34;96436.44;;;19.02;38.87
62057;BME280;48016;50.284;18.860;2024-03-23T12:53:01;96424.46;;;19.08;38.47
62057;BME280;48016;50.284;18.860;2024-03-23T12:55:27;96412.84;;;19.10;37.94
62057;BME280;48016;50.284;18.860;2024-03-23T12:57:53;96422.87;;;19.14;38.19
62057;BME280;48016;50.284;18.860;2024-03-23T13:00:20;96416.20;;;19.26;38.23
62057;BME280;48016;50.284;18.860;2024-03-23T13:02:46;96419.52;;;19.39;38.49
62057;BME280;48016;50.284;18.860;2024-03-23T13:05:13;96418.02;;;19.53;38.44
62057;BME280;48016;50.284;18.860;2024-03-23T13:07:40;96415.00;;;19.59;38.22
62057;BME280;48016;50.284;18.860;2024-03-23T13:10:06;96408.08;;;19.57;37.53
62057;BME280;48016;50.284;18.860;2024-03-23T13:12:33;96402.63;;;19.51;37.27
62057;BME280;48016;50.284;18.860;2024-03-23T13:15:00;96406.70;;;19.44;37.34
62057;BME280;48016;50.284;18.860;2024-03-23T13:17:27;96414.85;;;19.37;37.58
62057;BME280;48016;50.284;18.860;2024-03-23T13:19:54;96420.23;;;19.33;37.81
62057;BME280;48016;50.284;18.860;2024-03-23T13:22:22;96425.23;;;19.28;37.71
62057;BME280;48016;50.284;18.860;2024-03-23T13:24:48;96422.23;;;19.23;37.97
62057;BME280;48016;50.284;18.860;2024-03-23T13:27:15;96420.08;;;19.14;38.09
62057;BME280;48016;50.284;18.860;2024-03-23T13:29:41;96423.77;;;18.99;38.25
62057;BME280;48016;50.284;18.860;2024-03-23T13:32:08;96450.95;;;18.78;38.22
62057;BME280;48016;50.284;18.860;2024-03-23T13:34:35;96483.90;;;18.58;38.26
62057;BME280;48016;50.284;18.860;2024-03-23T13:37:01;96542.16;;;18.41;38.59
62057;BME280;48016;50.284;18.860;2024-03-23T13:39:28;96610.88;;;17.98;43.00
62057;BME280;48016;50.284;18.860;2024-03-23T13:41:55;96673.50;;;17.19;46.68
62057;BME280;48016;50.284;18.860;2024-03-23T13:44:24;96691.78;;;16.37;49.89
62057;BME280;48016;50.284;18.860;2024-03-23T13:46:50;96703.52;;;15.49;52.99
62057;BME280;48016;50.284;18.860;2024-03-23T13:49:28;96703.77;;;14.67;56.38
62057;BME280;48016;50.284;18.860;2024-03-23T13:51:56;96701.52;;;13.95;58.15
62057;BME280;48016;50.284;18.860;2024-03-23T13:54:28;96704.85;;;13.36;58.87
62057;BME280;48016;50.284;18.860;2024-03-23T13:56:55;96711.73;;;12.88;60.95
62057;BME280;48016;50.284;18.860;2024-03-23T13:59:23;96727.09;;;12.50;61.96
62057;BME280;48016;50.284;18.860;2024-03-23T14:01:50;96732.28;;;12.19;63.10
62057;BME280;48016;50.284;18.860;2024-03-23T14:04:17;96741.61;;;11.99;63.19
62057;BME280;48016;50.284;18.860;2024-03-23T14:06:46;96746.98;;;11.78;63.35